Time;durP1;ratioP1;P1;durP2;ratioP2;P2;SDS_P1;SDS_P2;PMS_P1;PMS_P2;Temp;Humidity;BMP_temperature;BMP_pressure;BME280_temperature;BME280_humidity;BME280_pressure;Samples;Min_cycle;Max_cycle;Signal;HPM_P1;HPM_P2
2021/05/11 00:01:58;;;;;;;0.60;0.50;;;;;;;13.83;99.74;95434.09;5076050;28;20278;-72
2021/05/11 00:04:24;;;;;;;0.50;0.40;;;;;;;13.80;100.00;95428.47;5076624;28;20204;-71
2021/05/11 00:06:51;;;;;;;2.60;0.50;;;;;;;13.80;100.00;95442.50;5076717;28;20196;-71
2021/05/11 00:09:17;;;;;;;0.60;0.55;;;;;;;13.79;100.00;95456.75;5076396;28;20199;-71
2021/05/11 00:11:43;;;;;;;0.50;0.50;;;;;;;13.83;99.99;95439.41;5076300;28;20791;-72
2021/05/11 00:14:09;;;;;;;0.47;0.40;;;;;;;13.87;100.00;95419.41;5076197;28;20287;-71
2021/05/11 00:16:35;;;;;;;0.50;0.40;;;;;;;13.87;100.00;95418.59;5076791;28;20196;-72
2021/05/11 00:19:04;;;;;;;0.50;0.50;;;;;;;13.81;100.00;95438.81;5075742;28;20218;-71
2021/05/11 00:21:30;;;;;;;0.70;0.50;;;;;;;13.74;100.00;95474.31;5076740;28;20874;-71
2021/05/11 00:23:57;;;;;;;0.45;0.40;;;;;;;13.68;100.00;95457.47;5076211;28;20237;-71
2021/05/11 00:26:23;;;;;;;1.15;0.60;;;;;;;13.58;100.00;95409.47;5076006;28;20204;-71
2021/05/11 00:28:48;;;;;;;0.70;0.50;;;;;;;13.61;100.00;95410.88;5076188;28;20268;-71
2021/05/11 00:31:14;;;;;;;0.55;0.50;;;;;;;13.65;100.00;95412.88;5076782;28;20212;-71
2021/05/11 00:33:40;;;;;;;0.82;0.50;;;;;;;13.56;100.00;95374.44;5076102;28;20196;-72
2021/05/11 00:36:06;;;;;;;0.85;0.70;;;;;;;13.60;100.00;95366.91;5075951;28;20232;-71
2021/05/11 00:38:32;;;;;;;0.90;0.43;;;;;;;13.58;100.00;95371.59;5076345;28;20208;-71
2021/05/11 00:40:59;;;;;;;0.70;0.50;;;;;;;13.66;100.00;95374.78;5079652;28;21052;-71
2021/05/11 00:43:26;;;;;;;0.57;0.57;;;;;;;13.75;100.00;95376.13;5079740;28;20287;-72
2021/05/11 00:45:52;;;;;;;1.55;0.50;;;;;;;13.76;100.00;95377.75;5079605;28;20211;-72
2021/05/11 00:48:18;;;;;;;0.70;0.50;;;;;;;13.77;100.00;95389.16;5080021;28;20200;-71
2021/05/11 00:50:44;;;;;;;1.20;0.50;;;;;;;13.76;100.00;95392.81;5079769;28;20228;-72
2021/05/11 00:53:10;;;;;;;0.80;0.50;;;;;;;13.84;100.00;95403.97;5079511;28;20716;-71
2021/05/11 00:55:36;;;;;;;0.40;0.40;;;;;;;13.93;100.00;95404.50;5079106;28;20206;-71
2021/05/11 00:58:03;;;;;;;2.15;0.60;;;;;;;13.90;100.00;95400.47;5077162;28;20213;-71
2021/05/11 01:00:30;;;;;;;2.40;0.60;;;;;;;13.82;100.00;95387.47;5080011;28;20241;-71
2021/05/11 01:02:56;;;;;;;0.50;0.50;;;;;;;13.84;100.00;95395.22;5080132;28;20885;-71
2021/05/11 01:05:22;;;;;;;1.00;0.80;;;;;;;13.76;100.00;95414.81;5078821;28;20257;-71
2021/05/11 01:07:48;;;;;;;2.03;0.80;;;;;;;13.74;100.00;95411.56;5079360;28;20249;-72
2021/05/11 01:10:14;;;;;;;0.98;0.75;;;;;;;13.80;100.00;95389.53;5079851;28;20272;-71
2021/05/11 01:12:41;;;;;;;0.82;0.52;;;;;;;13.79;100.00;95387.09;5079375;28;20230;-71
2021/05/11 01:15:09;;;;;;;2.25;0.55;;;;;;;13.74;100.00;95386.94;5078871;28;20211;-72
2021/05/11 01:17:36;;;;;;;0.60;0.60;;;;;;;13.81;100.00;95366.50;5078973;28;20204;-71
2021/05/11 01:20:05;;;;;;;0.73;0.50;;;;;;;13.80;100.00;95373.66;5079372;28;20255;-71
2021/05/11 01:22:42;;;;;;;0.60;0.60;;;;;;;13.72;100.00;95358.03;5078564;28;20253;-71
2021/05/11 01:25:11;;;;;;;0.80;0.60;;;;;;;13.74;100.00;95340.09;5078717;28;20575;-71
2021/05/11 01:27:48;;;;;;;0.43;0.43;;;;;;;13.64;100.00;95358.28;5080021;28;20206;-72
2021/05/11 01:30:50;;;;;;;0.88;0.70;;;;;;;13.52;100.00;95391.00;5078767;28;20600;-71
2021/05/11 01:44:44;;;;;;;1.85;0.73;;;;;;;13.68;100.00;95354.22;5078450;28;20215;-71
2021/05/11 01:47:26;;;;;;;0.80;0.80;;;;;;;13.70;100.00;95303.69;5078041;28;20202;-71
2021/05/11 01:50:03;;;;;;;1.20;0.77;;;;;;;13.62;100.00;95294.19;5078896;28;20243;-71
2021/05/11 01:52:41;;;;;;;0.85;0.75;;;;;;;13.53;100.00;95292.84;5078321;28;20228;-71
2021/05/11 01:55:22;;;;;;;1.45;0.80;;;;;;;13.51;100.00;95289.59;5077632;28;20196;-72
2021/05/11 01:58:22;;;;;;;1.30;0.80;;;;;;;13.54;100.00;95283.88;5076916;28;20294;-71
2021/05/11 02:22:48;;;;;;;1.50;1.02;;;;;;;13.48;100.00;95347.47;5077843;28;20211;-71
2021/05/11 02:25:14;;;;;;;2.67;1.02;;;;;;;13.44;100.00;95352.38;5077075;28;20282;-71
2021/05/11 02:27:42;;;;;;;1.63;1.30;;;;;;;13.45;100.00;95347.88;5077232;28;20202;-71
2021/05/11 02:30:10;;;;;;;1.95;1.50;;;;;;;13.39;100.00;95332.88;5078878;28;20219;-71
2021/05/11 02:32:37;;;;;;;1.85;1.42;;;;;;;13.44;100.00;95325.91;5075587;28;20224;-71
2021/05/11 02:35:05;;;;;;;2.47;1.50;;;;;;;13.45;100.00;95330.19;5077140;28;20206;-71
2021/05/11 02:37:31;;;;;;;1.67;1.40;;;;;;;13.42;100.00;95333.22;5077580;28;20200;-71
2021/05/11 02:39:57;;;;;;;3.30;1.90;;;;;;;13.44;100.00;95325.91;5078183;28;20215;-71
2021/05/11 02:42:23;;;;;;;2.55;1.58;;;;;;;13.42;100.00;95316.56;5077424;28;20204;-71
2021/05/11 02:44:51;;;;;;;2.40;1.70;;;;;;;13.37;100.00;95315.59;5077961;28;20196;-71
2021/05/11 02:47:17;;;;;;;2.38;1.83;;;;;;;13.41;100.00;95328.97;5076757;28;20207;-71
2021/05/11 02:49:44;;;;;;;2.42;2.10;;;;;;;13.38;100.00;95334.69;5077999;28;20277;-71
2021/05/11 02:52:11;;;;;;;3.67;2.20;;;;;;;13.27;100.00;95320.56;5077160;28;20220;-71
2021/05/11 02:54:37;;;;;;;3.10;1.92;;;;;;;13.38;100.00;95302.94;5077903;28;20669;-71
2021/05/11 02:57:03;;;;;;;7.13;4.43;;;;;;;13.38;100.00;95304.78;5074588;28;20204;-71
2021/05/11 02:59:29;;;;;;;2.55;1.98;;;;;;;13.28;100.00;95301.00;5077415;28;20220;-71
2021/05/11 03:01:56;;;;;;;2.53;2.17;;;;;;;13.38;100.00;95295.00;5077652;28;20226;-71
2021/05/11 03:04:22;;;;;;;2.38;1.80;;;;;;;13.33;100.00;95301.16;5076631;28;20253;-71
2021/05/11 03:06:48;;;;;;;2.75;1.98;;;;;;;13.25;100.00;95309.38;5076131;28;20286;-71
2021/05/11 03:09:14;;;;;;;2.80;2.00;;;;;;;13.33;100.00;95322.31;5077499;28;20244;-71
2021/05/11 03:11:40;;;;;;;4.25;2.20;;;;;;;13.27;100.00;95339.06;5076924;28;20293;-71
2021/05/11 03:14:06;;;;;;;2.65;1.92;;;;;;;13.39;100.00;95338.97;5076893;28;20196;-71
2021/05/11 03:16:34;;;;;;;3.35;1.92;;;;;;;13.42;100.00;95343.81;5076410;28;20203;-71
2021/05/11 03:19:00;;;;;;;4.45;2.20;;;;;;;13.43;100.00;95345.44;5077166;28;20199;-71
2021/05/11 03:21:26;;;;;;;4.00;2.70;;;;;;;13.44;100.00;95348.88;5077106;28;20223;-71
2021/05/11 03:23:52;;;;;;;3.80;2.92;;;;;;;13.41;100.00;95344.84;5076858;28;20286;-71
2021/05/11 03:26:18;;;;;;;3.03;2.30;;;;;;;13.39;100.00;95336.31;5076763;28;20203;-72
2021/05/11 03:28:44;;;;;;;3.17;2.45;;;;;;;13.29;100.00;95339.66;5076683;28;20777;-71
2021/05/11 03:31:10;;;;;;;4.55;3.30;;;;;;;13.11;100.00;95361.56;5077128;28;20658;-71
2021/05/11 03:33:36;;;;;;;5.85;3.25;;;;;;;13.08;100.00;95363.81;5076718;28;20219;-71
2021/05/11 03:36:04;;;;;;;4.18;3.20;;;;;;;13.02;100.00;95351.44;5077063;28;20253;-71
2021/05/11 03:38:30;;;;;;;4.68;3.60;;;;;;;13.08;100.00;95342.66;5076785;28;20203;-71
2021/05/11 03:40:56;;;;;;;6.55;3.60;;;;;;;13.08;100.00;95345.31;5076699;28;20220;-71
2021/05/11 03:43:25;;;;;;;7.10;3.38;;;;;;;13.19;100.00;95349.94;5076567;28;20206;-71
2021/05/11 03:45:54;;;;;;;4.88;3.60;;;;;;;13.13;100.00;95356.84;5077487;28;20280;-71
2021/05/11 03:48:20;;;;;;;5.00;3.50;;;;;;;13.22;100.00;95354.78;5075335;28;20918;-71
2021/05/11 03:50:46;;;;;;;5.18;4.05;;;;;;;13.18;100.00;95350.94;5075855;28;20721;-71
2021/05/11 03:53:13;;;;;;;5.05;3.58;;;;;;;13.18;100.00;95335.88;5077171;28;20228;-71
2021/05/11 03:55:39;;;;;;;4.88;3.40;;;;;;;13.08;100.00;95310.91;5076349;28;20207;-71
2021/05/11 03:58:05;;;;;;;4.95;4.13;;;;;;;12.96;100.00;95316.09;5074232;28;20265;-71
2021/05/11 04:00:31;;;;;;;5.97;3.83;;;;;;;12.98;100.00;95307.94;5076918;28;20223;-71
2021/05/11 04:02:57;;;;;;;4.75;3.55;;;;;;;13.01;100.00;95305.69;5076915;28;20283;-71
2021/05/11 04:05:23;;;;;;;4.88;3.92;;;;;;;13.03;100.00;95295.69;5075883;28;20254;-71
2021/05/11 04:07:53;;;;;;;5.25;4.15;;;;;;;12.92;100.00;95306.16;5077031;28;20207;-71
2021/05/11 04:10:28;;;;;;;6.35;4.70;;;;;;;12.81;100.00;95314.72;5076582;28;20212;-71
2021/05/11 04:18:23;;;;;;;7.38;5.28;;;;;;;12.83;100.00;95315.34;5061997;28;20213;-72
2021/05/11 04:20:49;;;;;;;7.95;5.28;;;;;;;12.87;100.00;95311.28;5079914;28;20304;-72
2021/05/11 04:23:15;;;;;;;5.60;4.38;;;;;;;12.98;100.00;95297.34;5080561;28;20252;-71
2021/05/11 04:25:42;;;;;;;8.25;4.65;;;;;;;12.92;100.00;95287.66;5080101;28;20612;-71
2021/05/11 04:28:08;;;;;;;6.28;4.53;;;;;;;12.99;100.00;95291.06;5079961;28;20196;-71
2021/05/11 04:30:34;;;;;;;5.22;4.70;;;;;;;13.10;100.00;95293.03;5080118;28;20229;-71
2021/05/11 04:33:00;;;;;;;7.72;4.90;;;;;;;13.16;100.00;95289.50;5080211;28;20664;-71
2021/05/11 04:35:26;;;;;;;8.32;4.13;;;;;;;13.25;100.00;95290.84;5079305;28;20229;-71
2021/05/11 04:37:52;;;;;;;5.25;4.28;;;;;;;13.30;100.00;95283.06;5080293;28;20199;-72
2021/05/11 04:40:19;;;;;;;6.80;4.80;;;;;;;13.37;100.00;95275.91;5080048;28;20215;-71
2021/05/11 04:42:45;;;;;;;7.72;4.57;;;;;;;13.40;100.00;95277.09;5080350;28;20207;-71
2021/05/11 04:45:16;;;;;;;5.85;4.63;;;;;;;13.46;100.00;95283.34;5079213;28;20743;-71
2021/05/11 04:47:48;;;;;;;7.93;4.43;;;;;;;13.50;100.00;95274.75;5080384;28;20200;-71
2021/05/11 04:50:16;;;;;;;5.43;4.70;;;;;;;13.48;100.00;95278.66;5079938;28;20215;-71
2021/05/11 04:52:42;;;;;;;6.18;4.85;;;;;;;13.65;100.00;95280.50;5080426;28;20241;-71
2021/05/11 04:55:10;;;;;;;7.63;5.47;;;;;;;13.66;100.00;95282.13;5078547;28;20200;-71
2021/05/11 04:57:36;;;;;;;8.57;5.60;;;;;;;13.78;100.00;95296.25;5076310;28;20199;-71
2021/05/11 05:00:04;;;;;;;8.02;5.30;;;;;;;13.92;100.00;95297.75;5080543;28;20218;-71
2021/05/11 05:02:31;;;;;;;7.20;5.20;;;;;;;13.92;100.00;95308.34;5079907;28;20224;-71
2021/05/11 05:04:56;;;;;;;7.45;5.55;;;;;;;13.98;100.00;95310.13;5079363;28;20196;-71
2021/05/11 05:07:22;;;;;;;8.93;5.55;;;;;;;13.94;100.00;95311.59;5079314;28;20212;-71
2021/05/11 05:09:48;;;;;;;7.63;5.60;;;;;;;14.07;100.00;95319.38;5079982;28;20219;-71
2021/05/11 05:12:14;;;;;;;7.32;5.93;;;;;;;14.06;100.00;95331.00;5078723;28;20274;-71
2021/05/11 05:14:40;;;;;;;7.00;5.68;;;;;;;14.19;100.00;95323.78;5079859;28;20200;-71
2021/05/11 05:17:07;;;;;;;8.32;5.63;;;;;;;14.18;100.00;95324.00;5077980;28;20231;-71
2021/05/11 05:19:34;;;;;;;9.68;5.88;;;;;;;14.20;100.00;95327.22;5079924;28;20223;-71
2021/05/11 05:22:01;;;;;;;6.70;5.40;;;;;;;14.24;100.00;95317.81;5079216;28;20203;-71
2021/05/11 05:24:30;;;;;;;6.57;4.03;;;;;;;14.20;100.00;95329.88;5078803;28;20231;-71
2021/05/11 05:27:00;;;;;;;6.68;4.60;;;;;;;14.18;100.00;95329.31;5077000;28;20204;-71
2021/05/11 05:29:26;;;;;;;7.70;4.30;;;;;;;14.21;100.00;95318.25;5078953;28;20220;-71
2021/05/11 05:31:52;;;;;;;5.85;4.32;;;;;;;14.34;100.00;95310.94;5079412;28;20215;-71
2021/05/11 05:34:19;;;;;;;5.80;4.10;;;;;;;14.34;100.00;95310.16;5079372;28;20290;-71
2021/05/11 05:36:45;;;;;;;5.13;3.58;;;;;;;14.38;100.00;95306.81;5078036;28;20208;-71
2021/05/11 05:39:11;;;;;;;5.60;3.33;;;;;;;14.39;100.00;95302.34;5078876;28;20200;-72
2021/05/11 05:41:37;;;;;;;4.70;3.85;;;;;;;14.39;100.00;95299.69;5078866;28;20256;-71
2021/05/11 05:44:03;;;;;;;4.90;3.40;;;;;;;14.57;100.00;95302.31;5079126;28;20822;-71
2021/05/11 05:46:29;;;;;;;5.10;4.07;;;;;;;14.60;98.61;95296.56;5077539;28;20207;-71
2021/05/11 05:48:55;;;;;;;10.70;4.93;;;;;;;14.59;99.60;95306.38;5078732;28;20791;-71
2021/05/11 05:51:24;;;;;;;6.43;4.45;;;;;;;14.58;98.74;95319.84;5078664;28;20228;-71
2021/05/11 05:53:50;;;;;;;6.47;4.47;;;;;;;14.64;98.83;95327.72;5078682;28;20774;-71
2021/05/11 05:56:18;;;;;;;5.85;4.10;;;;;;;14.66;98.30;95334.41;5074883;28;20203;-71
2021/05/11 05:58:44;;;;;;;4.38;3.40;;;;;;;14.60;98.51;95331.84;5078531;28;20245;-71
2021/05/11 06:01:11;;;;;;;6.57;4.07;;;;;;;14.72;100.00;95317.59;5078290;28;20227;-71
2021/05/11 06:03:40;;;;;;;5.15;3.90;;;;;;;14.76;100.00;95297.53;5079048;28;20203;-71
2021/05/11 06:06:07;;;;;;;5.95;4.10;;;;;;;14.89;98.63;95289.44;5078041;28;20192;-71
2021/05/11 06:08:35;;;;;;;5.35;3.80;;;;;;;14.84;99.82;95277.84;5077931;28;20196;-71
2021/05/11 06:11:08;;;;;;;5.57;3.83;;;;;;;14.92;100.00;95274.91;5078173;28;20289;-71
2021/05/11 06:13:38;;;;;;;4.93;3.70;;;;;;;14.83;100.00;95263.78;5078382;28;20219;-71
2021/05/11 06:18:49;;;;;;;4.97;3.78;;;;;;;14.81;98.79;95292.38;5077235;28;21095;-71
2021/05/11 06:21:15;;;;;;;5.75;4.10;;;;;;;14.97;97.05;95294.41;5078138;28;20243;-72
2021/05/11 06:23:42;;;;;;;4.68;3.83;;;;;;;15.08;97.51;95296.25;5077057;28;20200;-71
2021/05/11 06:26:09;;;;;;;6.68;4.05;;;;;;;15.23;98.90;95296.69;5077393;28;20669;-71
2021/05/11 06:28:38;;;;;;;4.57;4.05;;;;;;;15.12;96.74;95297.47;5077481;28;20196;-71
2021/05/11 06:31:04;;;;;;;7.43;3.80;;;;;;;15.07;97.80;95289.38;5076626;28;20310;-71
2021/05/11 06:33:30;;;;;;;5.40;3.90;;;;;;;15.11;97.66;95274.59;5073540;28;20224;-71
2021/05/11 06:35:56;;;;;;;5.22;3.53;;;;;;;15.29;95.33;95298.44;5077256;28;20204;-72
2021/05/11 06:38:22;;;;;;;5.75;3.88;;;;;;;15.26;95.08;95314.81;5077038;28;20337;-71
2021/05/11 06:40:49;;;;;;;6.50;4.45;;;;;;;15.25;95.86;95323.81;5076386;28;20319;-71
2021/05/11 06:43:22;;;;;;;7.35;5.20;;;;;;;15.30;96.55;95324.75;5077554;28;20200;-71
2021/05/11 06:48:34;;;;;;;7.00;4.70;;;;;;;15.33;96.81;95318.97;5075344;28;20199;-71
2021/05/11 06:53:48;;;;;;;9.50;5.80;;;;;;;15.26;97.93;95315.63;5077274;28;20226;-71
2021/05/11 06:56:15;;;;;;;10.02;6.35;;;;;;;15.08;97.86;95306.88;5075424;28;20280;-71
2021/05/11 06:58:41;;;;;;;10.98;6.03;;;;;;;15.07;99.04;95302.63;5074805;28;20199;-71
2021/05/11 07:01:07;;;;;;;8.25;5.93;;;;;;;14.98;99.38;95292.56;5076844;28;20227;-71
2021/05/11 07:03:34;;;;;;;9.45;6.00;;;;;;;15.10;98.79;95266.88;5077245;28;20680;-71
2021/05/11 07:06:01;;;;;;;7.38;5.75;;;;;;;15.28;99.04;95254.34;5076999;28;20196;-71
2021/05/11 07:08:32;;;;;;;9.35;6.10;;;;;;;15.28;98.84;95259.66;5076641;28;20203;-71
2021/05/11 07:11:01;;;;;;;10.25;6.80;;;;;;;15.23;98.20;95256.88;5075944;28;20220;-71
2021/05/11 07:13:27;;;;;;;8.32;6.35;;;;;;;15.17;100.00;95239.19;5076525;28;20223;-71
2021/05/11 07:15:53;;;;;;;7.53;5.97;;;;;;;15.17;99.45;95236.53;5076431;28;20208;-72
2021/05/11 07:18:21;;;;;;;9.15;6.65;;;;;;;15.20;99.28;95252.00;5077222;28;20317;-71
2021/05/11 07:20:49;;;;;;;8.82;6.30;;;;;;;15.22;99.69;95255.25;5076689;28;20280;-71
2021/05/11 07:23:19;;;;;;;8.30;6.22;;;;;;;15.26;100.00;95240.47;5076439;28;20200;-71
2021/05/11 07:25:53;;;;;;;10.57;6.90;;;;;;;15.40;100.00;95236.56;5075847;28;20261;-71
2021/05/11 07:31:04;;;;;;;8.45;5.97;;;;;;;15.34;99.92;95242.81;5075890;28;20783;-72
2021/05/11 07:33:33;;;;;;;7.47;5.60;;;;;;;15.48;100.00;95233.59;5075920;28;20789;-71
2021/05/11 07:35:59;;;;;;;9.40;6.75;;;;;;;15.56;100.00;95225.28;5075940;28;20195;-71
2021/05/11 07:38:26;;;;;;;9.00;6.35;;;;;;;15.53;97.59;95220.41;5074136;28;20215;-71
2021/05/11 07:40:52;;;;;;;10.43;7.05;;;;;;;15.60;96.97;95210.50;5076227;28;20222;-71
2021/05/11 07:43:19;;;;;;;9.18;6.78;;;;;;;15.64;99.50;95206.34;5074471;28;20207;-72
2021/05/11 07:46:04;;;;;;;10.35;6.80;;;;;;;15.64;98.38;95211.66;5075435;28;20204;-71
2021/05/11 07:48:46;;;;;;;8.40;6.43;;;;;;;15.67;98.69;95221.78;5077366;28;20195;-71
2021/05/11 08:04:59;;;;;;;11.07;6.75;;;;;;;15.76;97.29;95244.31;5078346;28;20207;-71
2021/05/11 08:10:28;;;;;;;12.13;6.75;;;;;;;15.62;96.60;95241.09;5080138;28;20234;-71
2021/05/11 08:15:42;;;;;;;8.27;6.35;;;;;;;15.89;98.18;95245.69;5061798;28;20200;-71
2021/05/11 08:18:12;;;;;;;11.57;7.32;;;;;;;16.18;95.48;95251.91;5080453;28;20199;-72
2021/05/11 08:23:29;;;;;;;9.15;6.68;;;;;;;16.25;94.42;95261.31;5079578;28;20191;-71
2021/05/11 08:28:40;;;;;;;9.75;6.85;;;;;;;16.54;94.06;95261.16;5079906;28;20206;-71
2021/05/11 08:31:07;;;;;;;9.15;6.63;;;;;;;16.45;92.57;95259.13;5080136;28;20731;-71
2021/05/11 08:33:33;;;;;;;11.77;7.78;;;;;;;16.30;94.05;95253.50;5079685;28;20219;-71
2021/05/11 08:36:00;;;;;;;10.82;7.75;;;;;;;16.23;95.63;95260.78;5079052;28;20204;-71
2021/05/11 08:38:26;;;;;;;10.95;7.93;;;;;;;16.24;93.61;95267.72;5079007;28;20681;-71
2021/05/11 08:40:53;;;;;;;10.35;7.22;;;;;;;16.19;93.58;95264.13;5079605;28;20767;-71
2021/05/11 08:43:30;;;;;;;10.70;6.97;;;;;;;16.27;93.29;95250.50;5079060;28;20203;-71
2021/05/11 08:45:59;;;;;;;11.25;7.68;;;;;;;16.38;92.51;95242.50;5079477;28;20202;-71
2021/05/11 08:48:25;;;;;;;9.88;6.82;;;;;;;16.54;92.56;95239.09;5079714;28;20581;-71
2021/05/11 08:50:56;;;;;;;9.75;6.82;;;;;;;16.68;92.05;95243.88;5078862;28;20772;-72
2021/05/11 08:53:47;;;;;;;10.35;6.93;;;;;;;16.78;90.79;95232.63;5079774;28;20228;-71
2021/05/11 09:04:39;;;;;;;7.65;5.07;;;;;;;16.74;94.55;95215.53;5079311;28;20249;-71
2021/05/11 09:07:39;;;;;;;5.50;3.85;;;;;;;17.15;88.02;95203.47;5079334;28;20252;-71
2021/05/11 09:24:24;;;;;;;6.72;4.85;;;;;;;16.89;87.16;95182.00;5078029;28;20253;-71
2021/05/11 09:26:55;;;;;;;5.57;4.00;;;;;;;17.10;85.33;95163.44;5076697;28;20199;-72
2021/05/11 09:29:27;;;;;;;4.93;3.90;;;;;;;17.18;87.67;95167.56;5077502;28;20203;-71
2021/05/11 09:32:11;;;;;;;6.55;4.10;;;;;;;17.26;86.27;95177.81;5077680;28;20211;-71
2021/05/11 09:34:45;;;;;;;7.07;4.55;;;;;;;17.13;89.80;95194.94;5077455;28;20230;-71
2021/05/11 09:54:34;;;;;;;6.35;4.75;;;;;;;17.71;84.02;95212.09;5077496;28;21130;-71
2021/05/11 09:57:15;;;;;;;6.30;4.60;;;;;;;17.58;84.87;95219.63;5074250;28;20685;-70
2021/05/11 10:40:34;;;;;;;5.88;3.97;;;;;;;17.42;82.60;95185.81;5055175;28;20238;-71
2021/05/11 10:48:40;;;;;;;6.32;3.55;;;;;;;17.74;81.52;95192.97;5076344;28;20921;-71
2021/05/11 10:51:20;;;;;;;6.53;3.95;;;;;;;17.76;82.06;95195.38;5075723;28;20288;-71
2021/05/11 10:54:04;;;;;;;5.93;4.18;;;;;;;17.71;85.52;95198.75;5076636;28;20226;-71
2021/05/11 10:56:58;;;;;;;6.75;4.40;;;;;;;17.60;84.60;95198.84;5075668;28;20208;-70
2021/05/11 10:59:37;;;;;;;6.90;3.75;;;;;;;17.80;85.69;95196.50;5076006;28;20207;-71
2021/05/11 11:02:25;;;;;;;5.43;4.35;;;;;;;17.79;83.31;95205.53;5075685;28;20211;-71
2021/05/11 11:04:51;;;;;;;8.65;3.92;;;;;;;17.62;81.02;95207.44;5075965;28;20204;-71
2021/05/11 11:07:30;;;;;;;7.15;4.20;;;;;;;17.55;82.54;95209.44;5072602;28;20580;-71
2021/05/11 11:09:59;;;;;;;6.03;4.32;;;;;;;17.48;82.58;95208.81;5075170;28;20300;-71
2021/05/11 11:12:34;;;;;;;7.13;4.20;;;;;;;17.44;84.28;95215.69;5075284;28;20452;-71
2021/05/11 11:15:03;;;;;;;6.90;4.50;;;;;;;17.38;86.61;95216.63;5075165;28;20196;-71
2021/05/11 11:17:30;;;;;;;5.55;4.40;;;;;;;17.39;85.61;95210.28;5073810;28;20684;-71
2021/05/11 11:20:00;;;;;;;7.68;4.95;;;;;;;17.17;90.56;95214.69;5075706;28;20223;-71
2021/05/11 11:25:14;;;;;;;8.43;4.50;;;;;;;17.21;85.22;95218.47;5073082;28;20218;-71
2021/05/11 11:27:40;;;;;;;7.40;4.55;;;;;;;17.08;86.75;95206.53;5075173;28;20203;-71
2021/05/11 11:30:09;;;;;;;7.82;4.60;;;;;;;17.18;88.43;95204.84;5071666;28;20219;-71
2021/05/11 11:32:36;;;;;;;9.77;5.05;;;;;;;17.20;91.17;95203.53;5071843;28;20223;-71
2021/05/11 11:35:04;;;;;;;8.98;5.22;;;;;;;17.12;92.34;95219.94;5075027;28;20203;-71
2021/05/11 11:37:31;;;;;;;10.43;6.78;;;;;;;17.05;91.45;95220.31;5074798;28;20685;-71
2021/05/11 11:40:00;;;;;;;12.18;7.45;;;;;;;17.09;91.83;95236.38;5073653;28;20276;-71
2021/05/11 11:42:27;;;;;;;11.55;7.47;;;;;;;17.03;91.96;95249.84;5073014;28;20200;-71
2021/05/11 11:44:57;;;;;;;20.50;8.00;;;;;;;17.05;92.26;95238.97;5071590;28;20211;-71
2021/05/11 11:47:24;;;;;;;12.93;8.00;;;;;;;17.01;94.67;95220.00;5070772;28;20208;-71
2021/05/11 11:49:53;;;;;;;14.65;8.45;;;;;;;17.21;94.67;95213.16;5073386;28;20219;-71
2021/05/11 11:52:24;;;;;;;14.98;8.68;;;;;;;17.28;92.81;95229.78;5073345;28;20195;-71
2021/05/11 11:55:14;;;;;;;15.60;8.25;;;;;;;17.31;91.91;95236.50;5073555;28;20919;-70
2021/05/11 11:57:46;;;;;;;13.57;8.13;;;;;;;17.36;93.30;95231.25;5074912;28;20516;-71
2021/05/11 12:00:16;;;;;;;15.30;8.20;;;;;;;17.22;91.76;95225.41;5075725;28;20369;-70
2021/05/11 12:02:53;;;;;;;11.88;8.10;;;;;;;17.25;92.25;95229.50;5075717;28;20196;-71
2021/05/11 12:05:21;;;;;;;12.63;8.43;;;;;;;17.17;91.30;95232.50;5074204;28;20196;-70
2021/05/11 12:08:18;;;;;;;14.73;8.27;;;;;;;17.12;93.62;95233.25;5064078;28;20196;-71
2021/05/11 12:10:47;;;;;;;17.02;7.88;;;;;;;17.13;93.96;95237.53;5073025;28;20234;-71
2021/05/11 12:13:18;;;;;;;12.98;8.05;;;;;;;16.91;92.99;95250.94;5075089;28;20700;-70
2021/05/11 12:15:45;;;;;;;11.07;7.60;;;;;;;16.90;95.23;95249.34;5074402;28;20199;-71
2021/05/11 12:18:15;;;;;;;13.10;7.80;;;;;;;16.77;96.76;95252.28;5074619;28;20235;-70
2021/05/11 12:20:42;;;;;;;11.10;7.45;;;;;;;16.64;97.10;95252.59;5074394;28;20247;-70
2021/05/11 12:23:14;;;;;;;12.38;7.85;;;;;;;16.48;99.98;95264.78;5074919;28;20570;-70
2021/05/11 12:25:41;;;;;;;13.27;7.60;;;;;;;16.51;97.85;95255.53;5073808;28;20578;-71
2021/05/11 12:28:08;;;;;;;14.52;8.85;;;;;;;16.47;97.43;95257.03;5074888;28;20575;-70
2021/05/11 12:30:37;;;;;;;13.75;8.32;;;;;;;16.44;96.74;95268.13;5071794;28;20240;-70
2021/05/11 12:33:05;;;;;;;16.10;8.65;;;;;;;16.24;96.39;95267.72;5074830;28;20272;-70
2021/05/11 12:35:31;;;;;;;14.65;8.25;;;;;;;16.25;96.79;95271.16;5075059;28;20250;-70
2021/05/11 12:38:01;;;;;;;14.35;8.63;;;;;;;16.18;98.31;95278.47;5078987;28;20953;-70
2021/05/11 12:40:47;;;;;;;14.18;8.60;;;;;;;15.97;98.69;95282.53;5078749;28;20227;-71
2021/05/11 12:43:14;;;;;;;16.00;10.38;;;;;;;16.01;100.00;95281.03;5078881;28;20234;-70
2021/05/11 12:45:51;;;;;;;18.45;9.20;;;;;;;15.84;100.00;95278.50;5077826;28;20226;-71
2021/05/11 12:48:17;;;;;;;16.40;10.20;;;;;;;15.87;100.00;95287.63;5078881;28;20211;-70
2021/05/11 12:50:44;;;;;;;15.35;8.75;;;;;;;15.75;100.00;95290.53;5077771;28;20223;-70
2021/05/11 12:53:30;;;;;;;17.05;9.85;;;;;;;15.56;100.00;95295.13;5078662;28;20685;-70
2021/05/11 12:56:13;;;;;;;17.23;10.65;;;;;;;15.54;100.00;95296.38;5078014;28;20208;-70
2021/05/11 12:58:44;;;;;;;19.33;11.48;;;;;;;15.52;100.00;95304.59;5078763;28;20278;-70
2021/05/11 13:01:33;;;;;;;19.58;12.05;;;;;;;15.43;100.00;95305.97;5079094;28;20251;-71
2021/05/11 13:04:18;;;;;;;22.15;11.43;;;;;;;15.42;100.00;95292.91;5079772;28;20287;-70
2021/05/11 13:13:35;;;;;;;18.92;11.27;;;;;;;15.35;100.00;95297.50;5079421;28;20680;-70
2021/05/11 13:15:28;;;;;;;23.80;11.45;;;;;;;15.56;100.00;95313.69;5078671;28;20229;-70
2021/05/11 13:20:58;;;;;;;20.85;12.05;;;;;;;15.55;100.00;95321.91;5078238;28;20662;-70
2021/05/11 13:25:07;;;;;;;22.52;12.20;;;;;;;15.53;100.00;95331.94;5079607;28;20207;-70
2021/05/11 13:26:16;;;;;;;19.95;12.07;;;;;;;15.52;100.00;95336.44;5077971;28;20655;-70
2021/05/11 13:28:49;;;;;;;23.13;12.25;;;;;;;15.37;100.00;95332.63;5078984;28;20214;-70
2021/05/11 13:31:22;;;;;;;23.20;13.18;;;;;;;15.36;100.00;95325.69;5076232;28;20363;-70
2021/05/11 13:33:54;;;;;;;22.58;12.48;;;;;;;15.35;100.00;95329.38;5079394;28;20235;-70
2021/05/11 13:36:20;;;;;;;21.48;12.80;;;;;;;15.30;100.00;95332.72;5078120;28;20992;-70
2021/05/11 13:38:46;;;;;;;22.27;13.30;;;;;;;15.36;100.00;95325.69;5078937;28;20238;-70
2021/05/11 13:41:12;;;;;;;22.42;13.70;;;;;;;15.51;100.00;95332.16;5078407;28;20240;-70
2021/05/11 13:43:38;;;;;;;20.05;12.70;;;;;;;15.46;100.00;95331.25;5078652;28;20229;-70
2021/05/11 13:46:04;;;;;;;24.70;12.85;;;;;;;15.43;100.00;95315.78;5078184;28;20569;-70
2021/05/11 13:48:35;;;;;;;23.17;13.25;;;;;;;15.36;100.00;95325.69;5078044;28;20195;-69
2021/05/11 13:51:04;;;;;;;23.85;13.88;;;;;;;15.42;100.00;95336.19;5078559;28;20599;-69
2021/05/11 13:53:34;;;;;;;29.80;14.73;;;;;;;15.41;100.00;95334.59;5078307;28;20259;-70
2021/05/11 14:01:34;;;;;;;21.65;12.70;;;;;;;14.99;100.00;95349.88;5078439;28;20277;-70
2021/05/11 14:04:01;;;;;;;19.98;12.30;;;;;;;14.74;100.00;95357.97;5079229;28;20257;-70
2021/05/11 14:06:28;;;;;;;22.35;13.40;;;;;;;14.64;100.00;95355.03;5077489;28;20756;-70
2021/05/11 14:08:54;;;;;;;21.83;12.35;;;;;;;14.61;100.00;95364.47;5078051;28;20289;-70
2021/05/11 14:11:20;;;;;;;20.05;12.07;;;;;;;14.62;100.00;95363.44;5078238;28;20273;-70
2021/05/11 14:13:46;;;;;;;23.17;13.40;;;;;;;14.58;100.00;95376.31;5078278;28;20228;-70
2021/05/11 14:16:13;;;;;;;21.52;13.60;;;;;;;14.55;100.00;95383.91;5077079;28;20479;-70
2021/05/11 14:18:39;;;;;;;25.52;13.63;;;;;;;14.61;100.00;95389.13;5078115;28;20279;-70
2021/05/11 14:21:06;;;;;;;23.33;13.60;;;;;;;14.52;100.00;95393.09;5077869;28;20226;-70
2021/05/11 14:23:32;;;;;;;22.17;12.73;;;;;;;14.39;100.00;95392.47;5077686;28;20762;-70
2021/05/11 14:25:58;;;;;;;23.35;13.90;;;;;;;14.29;100.00;95397.44;5077125;28;20681;-70
2021/05/11 14:28:24;;;;;;;27.95;14.52;;;;;;;14.31;100.00;95398.06;5077554;28;20203;-70
2021/05/11 14:30:50;;;;;;;23.75;14.32;;;;;;;14.32;100.00;95405.78;5074248;28;20232;-70
2021/05/11 14:33:16;;;;;;;22.52;13.68;;;;;;;14.37;100.00;95395.34;5077344;28;20735;-70